sensor_id;sensor_type;location;lat;lon;timestamp;pressure;altitude;pressure_sealevel;temperature;humidity
3598;BME280;1813;52.016;8.714;2023-04-08T00:01:15;-16261.94;;;-139.71;55.82
3598;BME280;1813;52.016;8.714;2023-04-08T00:03:49;-16261.94;;;-139.71;55.25
3598;BME280;1813;52.016;8.714;2023-04-08T00:06:23;-16261.94;;;-139.71;56.14
3598;BME280;1813;52.016;8.714;2023-04-08T00:08:57;-16261.94;;;-139.71;56.30
3598;BME280;1813;52.016;8.714;2023-04-08T00:11:33;-16261.94;;;-139.71;55.02
3598;BME280;1813;52.016;8.714;2023-04-08T00:14:07;-16261.94;;;-139.71;54.58
3598;BME280;1813;52.016;8.714;2023-04-08T00:16:41;-16261.94;;;-139.71;53.98
3598;BME280;1813;52.016;8.714;2023-04-08T00:19:15;-16261.94;;;-139.71;54.05
3598;BME280;1813;52.016;8.714;2023-04-08T00:21:49;-16261.94;;;-139.71;55.10
3598;BME280;1813;52.016;8.714;2023-04-08T00:24:23;-16261.94;;;-139.71;55.02
3598;BME280;1813;52.016;8.714;2023-04-08T00:27:00;-16261.94;;;-139.71;54.22
3598;BME280;1813;52.016;8.714;2023-04-08T00:29:34;-16261.94;;;-139.71;53.37
3598;BME280;1813;52.016;8.714;2023-04-08T00:32:08;-16261.94;;;-139.71;53.36
3598;BME280;1813;52.016;8.714;2023-04-08T00:34:42;-16261.94;;;-139.71;53.02
3598;BME280;1813;52.016;8.714;2023-04-08T00:37:16;-16261.94;;;-139.71;52.74
3598;BME280;1813;52.016;8.714;2023-04-08T00:39:51;-16261.94;;;-139.71;52.86
3598;BME280;1813;52.016;8.714;2023-04-08T00:42:27;-16261.94;;;-139.71;53.83
3598;BME280;1813;52.016;8.714;2023-04-08T00:45:02;-16261.94;;;-139.71;54.59
3598;BME280;1813;52.016;8.714;2023-04-08T00:47:36;-16261.94;;;-139.71;55.07
3598;BME280;1813;52.016;8.714;2023-04-08T00:50:10;-16261.94;;;-139.71;54.95
3598;BME280;1813;52.016;8.714;2023-04-08T00:52:44;-16261.94;;;-139.71;54.80
3598;BME280;1813;52.016;8.714;2023-04-08T00:55:18;-16261.94;;;-139.71;54.08
3598;BME280;1813;52.016;8.714;2023-04-08T00:57:55;-16261.94;;;-139.71;53.83
3598;BME280;1813;52.016;8.714;2023-04-08T01:00:30;-16261.94;;;-139.71;53.86
3598;BME280;1813;52.016;8.714;2023-04-08T01:03:09;-16261.94;;;-139.71;53.99
3598;BME280;1813;52.016;8.714;2023-04-08T01:05:53;-16261.94;;;-139.71;54.07
3598;BME280;1813;52.016;8.714;2023-04-08T01:08:30;-16261.94;;;-139.71;54.27
3598;BME280;1813;52.016;8.714;2023-04-08T01:11:09;-16261.94;;;-139.71;54.49
3598;BME280;1813;52.016;8.714;2023-04-08T01:13:48;-16261.94;;;-139.71;54.22
3598;BME280;1813;52.016;8.714;2023-04-08T01:16:26;-16261.94;;;-139.71;54.43
3598;BME280;1813;52.016;8.714;2023-04-08T01:19:00;-16261.94;;;-139.71;54.56
3598;BME280;1813;52.016;8.714;2023-04-08T01:21:36;-16261.94;;;-139.71;54.34
3598;BME280;1813;52.016;8.714;2023-04-08T01:24:18;-16261.94;;;-139.71;53.94
3598;BME280;1813;52.016;8.714;2023-04-08T01:26:55;-16261.94;;;-139.71;53.89
3598;BME280;1813;52.016;8.714;2023-04-08T01:29:33;-16261.94;;;-139.71;54.00
3598;BME280;1813;52.016;8.714;2023-04-08T01:32:10;-16261.94;;;-139.71;54.06
3598;BME280;1813;52.016;8.714;2023-04-08T01:34:45;-16261.94;;;-139.71;53.97
3598;BME280;1813;52.016;8.714;2023-04-08T01:37:20;-16261.94;;;-139.71;54.00
3598;BME280;1813;52.016;8.714;2023-04-08T01:39:59;-16261.94;;;-139.71;53.83
3598;BME280;1813;52.016;8.714;2023-04-08T01:42:37;-16261.94;;;-139.71;53.63
3598;BME280;1813;52.016;8.714;2023-04-08T01:45:11;-16261.94;;;-139.71;53.47
3598;BME280;1813;52.016;8.714;2023-04-08T01:47:48;-16261.94;;;-139.71;53.57
3598;BME280;1813;52.016;8.714;2023-04-08T01:50:22;-16261.94;;;-139.71;54.30
3598;BME280;1813;52.016;8.714;2023-04-08T01:52:59;-16261.94;;;-139.71;54.27
3598;BME280;1813;52.016;8.714;2023-04-08T01:55:33;-16261.94;;;-139.71;54.61
3598;BME280;1813;52.016;8.714;2023-04-08T01:58:15;-16261.94;;;-139.71;55.25
3598;BME280;1813;52.016;8.714;2023-04-08T02:00:53;-16261.94;;;-139.71;55.24
3598;BME280;1813;52.016;8.714;2023-04-08T02:03:28;-16261.94;;;-139.71;55.57
3598;BME280;1813;52.016;8.714;2023-04-08T02:06:03;-16261.94;;;-139.71;55.57
3598;BME280;1813;52.016;8.714;2023-04-08T02:08:37;-16261.94;;;-139.71;55.50
3598;BME280;1813;52.016;8.714;2023-04-08T02:11:11;-16261.94;;;-139.71;55.38
3598;BME280;1813;52.016;8.714;2023-04-08T02:13:48;-16261.94;;;-139.71;55.82
3598;BME280;1813;52.016;8.714;2023-04-08T02:16:23;-16261.94;;;-139.71;55.65
3598;BME280;1813;52.016;8.714;2023-04-08T02:19:08;-16261.94;;;-139.71;55.63
3598;BME280;1813;52.016;8.714;2023-04-08T02:21:46;-16261.94;;;-139.71;55.84
3598;BME280;1813;52.016;8.714;2023-04-08T02:24:21;-16261.94;;;-139.71;56.03
3598;BME280;1813;52.016;8.714;2023-04-08T02:26:55;-16261.94;;;-139.71;55.79
3598;BME280;1813;52.016;8.714;2023-04-08T02:29:33;-16261.94;;;-139.71;55.86
3598;BME280;1813;52.016;8.714;2023-04-08T02:32:10;-16261.94;;;-139.71;55.92
3598;BME280;1813;52.016;8.714;2023-04-08T02:34:44;-16261.94;;;-139.71;56.39
3598;BME280;1813;52.016;8.714;2023-04-08T02:37:19;-16261.94;;;-139.71;56.66
3598;BME280;1813;52.016;8.714;2023-04-08T02:39:53;-16261.94;;;-139.71;56.98
3598;BME280;1813;52.016;8.714;2023-04-08T02:42:30;-16261.94;;;-139.71;56.49
3598;BME280;1813;52.016;8.714;2023-04-08T02:45:07;-16261.94;;;-139.71;56.20
3598;BME280;1813;52.016;8.714;2023-04-08T02:47:41;-16261.94;;;-139.71;56.49
3598;BME280;1813;52.016;8.714;2023-04-08T02:50:15;-16261.94;;;-139.71;57.12
3598;BME280;1813;52.016;8.714;2023-04-08T02:52:49;-16261.94;;;-139.71;57.63
3598;BME280;1813;52.016;8.714;2023-04-08T02:55:23;-16261.94;;;-139.71;58.68
3598;BME280;1813;52.016;8.714;2023-04-08T02:57:57;-16261.94;;;-139.71;58.66
3598;BME280;1813;52.016;8.714;2023-04-08T03:00:34;-16261.94;;;-139.71;59.04
3598;BME280;1813;52.016;8.714;2023-04-08T03:03:09;-16261.94;;;-139.71;59.58
3598;BME280;1813;52.016;8.714;2023-04-08T03:05:43;-16261.94;;;-139.71;59.92
3598;BME280;1813;52.016;8.714;2023-04-08T03:08:17;-16261.94;;;-139.71;60.16
3598;BME280;1813;52.016;8.714;2023-04-08T03:10:50;-16261.94;;;-139.71;60.46
3598;BME280;1813;52.016;8.714;2023-04-08T03:13:24;-16261.94;;;-139.71;60.70
3598;BME280;1813;52.016;8.714;2023-04-08T03:16:02;-16261.94;;;-139.71;61.05
3598;BME280;1813;52.016;8.714;2023-04-08T03:18:36;-16261.94;;;-139.71;61.53
3598;BME280;1813;52.016;8.714;2023-04-08T03:21:10;-16261.94;;;-139.71;61.85
3598;BME280;1813;52.016;8.714;2023-04-08T03:23:44;-16261.94;;;-139.71;62.11
3598;BME280;1813;52.016;8.714;2023-04-08T03:26:17;-16261.94;;;-139.71;62.58
3598;BME280;1813;52.016;8.714;2023-04-08T03:28:51;-16261.94;;;-139.71;63.06
3598;BME280;1813;52.016;8.714;2023-04-08T03:31:28;-16261.94;;;-139.71;63.47
3598;BME280;1813;52.016;8.714;2023-04-08T03:34:02;-16261.94;;;-139.71;63.62
3598;BME280;1813;52.016;8.714;2023-04-08T03:36:36;-16261.94;;;-139.71;63.54
3598;BME280;1813;52.016;8.714;2023-04-08T03:39:10;-16261.94;;;-139.71;63.93
3598;BME280;1813;52.016;8.714;2023-04-08T03:41:44;-16261.94;;;-139.71;64.60
3598;BME280;1813;52.016;8.714;2023-04-08T03:44:18;-16261.94;;;-139.71;65.47
3598;BME280;1813;52.016;8.714;2023-04-08T03:46:54;-16261.94;;;-139.71;66.26
3598;BME280;1813;52.016;8.714;2023-04-08T03:49:28;-16261.94;;;-139.71;66.45
3598;BME280;1813;52.016;8.714;2023-04-08T03:52:02;-16261.94;;;-139.71;66.82
3598;BME280;1813;52.016;8.714;2023-04-08T03:54:36;-16261.94;;;-139.71;67.31
3598;BME280;1813;52.016;8.714;2023-04-08T03:57:10;-16261.94;;;-139.71;68.00
3598;BME280;1813;52.016;8.714;2023-04-08T03:59:44;-16261.94;;;-139.71;68.64
3598;BME280;1813;52.016;8.714;2023-04-08T04:02:21;-16261.94;;;-139.71;69.15
3598;BME280;1813;52.016;8.714;2023-04-08T04:04:54;-16261.94;;;-139.71;69.57
3598;BME280;1813;52.016;8.714;2023-04-08T04:07:28;-16261.94;;;-139.71;69.90
3598;BME280;1813;52.016;8.714;2023-04-08T04:10:03;-16261.94;;;-139.71;70.13
3598;BME280;1813;52.016;8.714;2023-04-08T04:12:37;-16261.94;;;-139.71;70.46
3598;BME280;1813;52.016;8.714;2023-04-08T04:15:11;-16261.94;;;-139.71;70.87
3598;BME280;1813;52.016;8.714;2023-04-08T04:17:49;-16261.94;;;-139.71;70.77
3598;BME280;1813;52.016;8.714;2023-04-08T04:20:23;-16261.94;;;-139.71;70.46
3598;BME280;1813;52.016;8.714;2023-04-08T04:22:58;-16261.94;;;-139.71;70.06
3598;BME280;1813;52.016;8.714;2023-04-08T04:25:32;-16261.94;;;-139.71;70.38
3598;BME280;1813;52.016;8.714;2023-04-08T04:28:06;-16261.94;;;-139.71;70.52
3598;BME280;1813;52.016;8.714;2023-04-08T04:30:40;-16261.94;;;-139.71;70.94
3598;BME280;1813;52.016;8.714;2023-04-08T04:33:18;-16261.94;;;-139.71;71.09
3598;BME280;1813;52.016;8.714;2023-04-08T04:35:52;-16261.94;;;-139.71;71.44
3598;BME280;1813;52.016;8.714;2023-04-08T04:38:26;-16261.94;;;-139.71;71.22
3598;BME280;1813;52.016;8.714;2023-04-08T04:41:00;-16261.94;;;-139.71;71.38
3598;BME280;1813;52.016;8.714;2023-04-08T04:43:34;-16261.94;;;-139.71;71.58
3598;BME280;1813;52.016;8.714;2023-04-08T04:46:08;-16261.94;;;-139.71;71.78
3598;BME280;1813;52.016;8.714;2023-04-08T04:48:45;-16261.94;;;-139.71;72.05
3598;BME280;1813;52.016;8.714;2023-04-08T04:51:19;-16261.94;;;-139.71;72.46
3598;BME280;1813;52.016;8.714;2023-04-08T04:53:52;-16261.94;;;-139.71;72.52
3598;BME280;1813;52.016;8.714;2023-04-08T04:56:26;-16261.94;;;-139.71;73.06
3598;BME280;1813;52.016;8.714;2023-04-08T04:59:00;-16261.94;;;-139.71;73.31
3598;BME280;1813;52.016;8.714;2023-04-08T05:01:35;-16261.94;;;-139.71;73.37
3598;BME280;1813;52.016;8.714;2023-04-08T05:04:13;-16261.94;;;-139.71;73.41
3598;BME280;1813;52.016;8.714;2023-04-08T05:06:47;-16261.94;;;-139.71;73.59
3598;BME280;1813;52.016;8.714;2023-04-08T05:09:20;-16261.94;;;-139.71;73.87
3598;BME280;1813;52.016;8.714;2023-04-08T05:11:55;-16261.94;;;-139.71;74.09
3598;BME280;1813;52.016;8.714;2023-04-08T05:14:29;-16261.94;;;-139.71;74.60
3598;BME280;1813;52.016;8.714;2023-04-08T05:17:03;-16261.94;;;-139.71;74.62
3598;BME280;1813;52.016;8.714;2023-04-08T05:19:39;-16261.94;;;-139.71;74.55
3598;BME280;1813;52.016;8.714;2023-04-08T05:22:13;-16261.94;;;-139.71;74.42
3598;BME280;1813;52.016;8.714;2023-04-08T05:24:47;-16261.94;;;-139.71;74.32
3598;BME280;1813;52.016;8.714;2023-04-08T05:27:21;-16261.94;;;-139.71;74.39
3598;BME280;1813;52.016;8.714;2023-04-08T05:29:55;-16261.94;;;-139.71;74.45
3598;BME280;1813;52.016;8.714;2023-04-08T05:32:29;-16261.94;;;-139.71;74.45
3598;BME280;1813;52.016;8.714;2023-04-08T05:35:06;-16261.94;;;-139.71;74.48
3598;BME280;1813;52.016;8.714;2023-04-08T05:37:40;-16261.94;;;-139.71;74.50
3598;BME280;1813;52.016;8.714;2023-04-08T05:40:14;-16261.94;;;-139.71;74.56
3598;BME280;1813;52.016;8.714;2023-04-08T05:42:48;-16261.94;;;-139.71;74.72
3598;BME280;1813;52.016;8.714;2023-04-08T05:45:22;-16261.94;;;-139.71;74.90
3598;BME280;1813;52.016;8.714;2023-04-08T05:47:56;-16261.94;;;-139.71;74.74
3598;BME280;1813;52.016;8.714;2023-04-08T05:50:34;-16261.94;;;-139.71;74.51
3598;BME280;1813;52.016;8.714;2023-04-08T05:53:08;-16261.94;;;-139.71;74.45
3598;BME280;1813;52.016;8.714;2023-04-08T05:55:42;-16261.94;;;-139.71;74.52
3598;BME280;1813;52.016;8.714;2023-04-08T05:58:16;-16261.94;;;-139.71;74.46
3598;BME280;1813;52.016;8.714;2023-04-08T06:00:50;-16261.94;;;-139.71;74.83
3598;BME280;1813;52.016;8.714;2023-04-08T06:03:25;-16261.94;;;-139.71;74.96
3598;BME280;1813;52.016;8.714;2023-04-08T06:06:01;-16261.94;;;-139.71;74.79
3598;BME280;1813;52.016;8.714;2023-04-08T06:08:35;-16261.94;;;-139.71;74.93
3598;BME280;1813;52.016;8.714;2023-04-08T06:11:09;-16261.94;;;-139.71;74.86
3598;BME280;1813;52.016;8.714;2023-04-08T06:13:43;-16261.94;;;-139.71;74.80
3598;BME280;1813;52.016;8.714;2023-04-08T06:16:17;-16261.94;;;-139.71;74.87
3598;BME280;1813;52.016;8.714;2023-04-08T06:18:50;-16261.94;;;-139.71;74.75
3598;BME280;1813;52.016;8.714;2023-04-08T06:21:27;-16261.94;;;-139.71;74.79
3598;BME280;1813;52.016;8.714;2023-04-08T06:24:01;-16261.94;;;-139.71;75.09
3598;BME280;1813;52.016;8.714;2023-04-08T06:26:34;-16261.94;;;-139.71;75.44
3598;BME280;1813;52.016;8.714;2023-04-08T06:29:08;-16261.94;;;-139.71;75.69
3598;BME280;1813;52.016;8.714;2023-04-08T06:31:42;-16261.94;;;-139.71;75.51
3598;BME280;1813;52.016;8.714;2023-04-08T06:34:16;-16261.94;;;-139.71;75.28
3598;BME280;1813;52.016;8.714;2023-04-08T06:36:53;-16261.94;;;-139.71;75.06
3598;BME280;1813;52.016;8.714;2023-04-08T06:39:27;-16261.94;;;-139.71;75.14
3598;BME280;1813;52.016;8.714;2023-04-08T06:42:01;-16261.94;;;-139.71;75.32
3598;BME280;1813;52.016;8.714;2023-04-08T06:44:50;-16261.94;;;-139.71;75.36
3598;BME280;1813;52.016;8.714;2023-04-08T06:47:24;-16261.94;;;-139.71;75.56
3598;BME280;1813;52.016;8.714;2023-04-08T06:49:58;-16261.94;;;-139.71;75.41
3598;BME280;1813;52.016;8.714;2023-04-08T06:52:34;-16261.94;;;-139.71;75.63
3598;BME280;1813;52.016;8.714;2023-04-08T06:55:08;-16261.94;;;-139.71;75.47
3598;BME280;1813;52.016;8.714;2023-04-08T06:57:42;-16261.94;;;-139.71;75.54
3598;BME280;1813;52.016;8.714;2023-04-08T07:00:17;-16261.94;;;-139.71;75.56
3598;BME280;1813;52.016;8.714;2023-04-08T07:02:50;-16261.94;;;-139.71;75.58
3598;BME280;1813;52.016;8.714;2023-04-08T07:05:25;-16261.94;;;-139.71;75.48
3598;BME280;1813;52.016;8.714;2023-04-08T07:08:01;-16261.94;;;-139.71;75.63
3598;BME280;1813;52.016;8.714;2023-04-08T07:10:35;-16261.94;;;-139.71;75.58
3598;BME280;1813;52.016;8.714;2023-04-08T07:13:09;-16261.94;;;-139.71;75.69
3598;BME280;1813;52.016;8.714;2023-04-08T07:15:43;-16261.94;;;-139.71;75.58
3598;BME280;1813;52.016;8.714;2023-04-08T07:18:17;-16261.94;;;-139.71;75.57
3598;BME280;1813;52.016;8.714;2023-04-08T07:20:51;-16261.94;;;-139.71;75.75
3598;BME280;1813;52.016;8.714;2023-04-08T07:23:28;-16261.94;;;-139.71;75.63
3598;BME280;1813;52.016;8.714;2023-04-08T07:26:03;-16261.94;;;-139.71;75.79
3598;BME280;1813;52.016;8.714;2023-04-08T07:28:37;-16261.94;;;-139.71;75.78
3598;BME280;1813;52.016;8.714;2023-04-08T07:31:13;-16261.94;;;-139.71;76.07
3598;BME280;1813;52.016;8.714;2023-04-08T07:33:47;-16261.94;;;-139.71;75.93
3598;BME280;1813;52.016;8.714;2023-04-08T07:36:21;-16261.94;;;-139.71;75.81
3598;BME280;1813;52.016;8.714;2023-04-08T07:38:57;-16261.94;;;-139.71;75.94
3598;BME280;1813;52.016;8.714;2023-04-08T07:41:31;-16261.94;;;-139.71;76.08
3598;BME280;1813;52.016;8.714;2023-04-08T07:44:06;-16261.94;;;-139.71;75.95
3598;BME280;1813;52.016;8.714;2023-04-08T07:46:40;-16261.94;;;-139.71;75.98
3598;BME280;1813;52.016;8.714;2023-04-08T07:49:15;-16261.94;;;-139.71;76.04
3598;BME280;1813;52.016;8.714;2023-04-08T07:51:49;-16261.94;;;-139.71;76.05
3598;BME280;1813;52.016;8.714;2023-04-08T07:54:25;-16261.94;;;-139.71;76.58
3598;BME280;1813;52.016;8.714;2023-04-08T07:57:00;-16261.94;;;-139.71;76.80
3598;BME280;1813;52.016;8.714;2023-04-08T07:59:34;-16261.94;;;-139.71;76.70
3598;BME280;1813;52.016;8.714;2023-04-08T08:02:08;-16261.94;;;-139.71;76.63
3598;BME280;1813;52.016;8.714;2023-04-08T08:04:42;-16261.94;;;-139.71;76.65
3598;BME280;1813;52.016;8.714;2023-04-08T08:07:16;-16261.94;;;-139.71;76.45
3598;BME280;1813;52.016;8.714;2023-04-08T08:09:53;-16261.94;;;-139.71;76.71
3598;BME280;1813;52.016;8.714;2023-04-08T08:12:27;-16261.94;;;-139.71;77.11
3598;BME280;1813;52.016;8.714;2023-04-08T08:15:01;-16261.94;;;-139.71;77.10
3598;BME280;1813;52.016;8.714;2023-04-08T08:17:35;-16261.94;;;-139.71;77.52
3598;BME280;1813;52.016;8.714;2023-04-08T08:20:16;-16261.94;;;-139.71;76.93
3598;BME280;1813;52.016;8.714;2023-04-08T08:22:53;-16261.94;;;-139.71;76.47
3598;BME280;1813;52.016;8.714;2023-04-08T08:25:30;-16261.94;;;-139.71;75.95
3598;BME280;1813;52.016;8.714;2023-04-08T08:28:03;-16261.94;;;-139.71;76.23
3598;BME280;1813;52.016;8.714;2023-04-08T08:30:37;-16261.94;;;-139.71;76.43
3598;BME280;1813;52.016;8.714;2023-04-08T08:33:11;-16261.94;;;-139.71;75.83
3598;BME280;1813;52.016;8.714;2023-04-08T08:35:45;-16261.94;;;-139.71;75.12
3598;BME280;1813;52.016;8.714;2023-04-08T08:38:19;-16261.94;;;-139.71;74.61
3598;BME280;1813;52.016;8.714;2023-04-08T08:40:57;-16261.94;;;-139.71;74.99
3598;BME280;1813;52.016;8.714;2023-04-08T08:43:31;-16261.94;;;-139.71;74.88
3598;BME280;1813;52.016;8.714;2023-04-08T08:46:09;-16261.94;;;-139.71;75.16
3598;BME280;1813;52.016;8.714;2023-04-08T08:48:43;-16261.94;;;-139.71;75.04
3598;BME280;1813;52.016;8.714;2023-04-08T08:51:17;-16261.94;;;-139.71;75.33
3598;BME280;1813;52.016;8.714;2023-04-08T08:53:51;-16261.94;;;-139.71;75.16
3598;BME280;1813;52.016;8.714;2023-04-08T08:56:28;-16261.94;;;-139.71;75.01
3598;BME280;1813;52.016;8.714;2023-04-08T08:59:02;-16261.94;;;-139.71;74.83
3598;BME280;1813;52.016;8.714;2023-04-08T09:01:38;-16261.94;;;-139.71;74.15
3598;BME280;1813;52.016;8.714;2023-04-08T09:04:14;-16261.94;;;-139.71;73.87
3598;BME280;1813;52.016;8.714;2023-04-08T09:07:05;-16261.94;;;-139.71;73.88
3598;BME280;1813;52.016;8.714;2023-04-08T09:09:48;-16261.94;;;-139.71;73.93
3598;BME280;1813;52.016;8.714;2023-04-08T09:12:25;-16261.94;;;-139.71;73.75
3598;BME280;1813;52.016;8.714;2023-04-08T09:15:07;-16261.94;;;-139.71;73.80
3598;BME280;1813;52.016;8.714;2023-04-08T09:17:41;-16261.94;;;-139.71;73.60
3598;BME280;1813;52.016;8.714;2023-04-08T09:20:15;-16261.94;;;-139.71;73.34
3598;BME280;1813;52.016;8.714;2023-04-08T09:22:56;-16261.94;;;-139.71;73.07
3598;BME280;1813;52.016;8.714;2023-04-08T09:25:31;-16261.94;;;-139.71;72.35
3598;BME280;1813;52.016;8.714;2023-04-08T09:28:18;-16261.94;;;-139.71;72.10
3598;BME280;1813;52.016;8.714;2023-04-08T09:30:53;-16261.94;;;-139.71;72.13
3598;BME280;1813;52.016;8.714;2023-04-08T09:33:30;-16261.94;;;-139.71;72.46
3598;BME280;1813;52.016;8.714;2023-04-08T09:36:05;-16261.94;;;-139.71;72.87
3598;BME280;1813;52.016;8.714;2023-04-08T09:38:39;-16261.94;;;-139.71;72.70
3598;BME280;1813;52.016;8.714;2023-04-08T09:41:14;-16261.94;;;-139.71;72.35
3598;BME280;1813;52.016;8.714;2023-04-08T09:43:53;-16261.94;;;-139.71;72.07
3598;BME280;1813;52.016;8.714;2023-04-08T09:46:32;-16261.94;;;-139.71;71.64
3598;BME280;1813;52.016;8.714;2023-04-08T09:49:09;-16261.94;;;-139.71;71.43
3598;BME280;1813;52.016;8.714;2023-04-08T09:51:47;-16261.94;;;-139.71;71.61
3598;BME280;1813;52.016;8.714;2023-04-08T09:54:24;-16261.94;;;-139.71;71.78
3598;BME280;1813;52.016;8.714;2023-04-08T09:57:03;-16261.94;;;-139.71;72.15
3598;BME280;1813;52.016;8.714;2023-04-08T09:59:45;-16261.94;;;-139.71;71.92
3598;BME280;1813;52.016;8.714;2023-04-08T10:02:29;-16261.94;;;-139.71;71.66
3598;BME280;1813;52.016;8.714;2023-04-08T10:05:04;-16261.94;;;-139.71;71.36
3598;BME280;1813;52.016;8.714;2023-04-08T10:07:39;-16261.94;;;-139.71;71.27
3598;BME280;1813;52.016;8.714;2023-04-08T10:10:13;-16261.94;;;-139.71;71.72
3598;BME280;1813;52.016;8.714;2023-04-08T10:12:48;-16261.94;;;-139.71;72.48
3598;BME280;1813;52.016;8.714;2023-04-08T10:15:27;-16261.94;;;-139.71;72.73
3598;BME280;1813;52.016;8.714;2023-04-08T10:18:30;-16261.94;;;-139.71;73.00
3598;BME280;1813;52.016;8.714;2023-04-08T10:21:30;-16261.94;;;-139.71;73.26
3598;BME280;1813;52.016;8.714;2023-04-08T10:24:08;-16261.94;;;-139.71;73.23
3598;BME280;1813;52.016;8.714;2023-04-08T10:26:44;-16261.94;;;-139.71;73.22
3598;BME280;1813;52.016;8.714;2023-04-08T10:29:34;-16261.94;;;-139.71;73.29
3598;BME280;1813;52.016;8.714;2023-04-08T10:32:27;-16261.94;;;-139.71;73.25
3598;BME280;1813;52.016;8.714;2023-04-08T10:35:01;-16261.94;;;-139.71;73.68
3598;BME280;1813;52.016;8.714;2023-04-08T10:37:35;-16261.94;;;-139.71;73.80
3598;BME280;1813;52.016;8.714;2023-04-08T10:40:18;-16261.94;;;-139.71;73.56
3598;BME280;1813;52.016;8.714;2023-04-08T10:42:54;-16261.94;;;-139.71;73.21
3598;BME280;1813;52.016;8.714;2023-04-08T10:45:28;-16261.94;;;-139.71;73.04
3598;BME280;1813;52.016;8.714;2023-04-08T10:48:15;-16261.94;;;-139.71;72.46
3598;BME280;1813;52.016;8.714;2023-04-08T10:50:55;-16261.94;;;-139.71;72.36
3598;BME280;1813;52.016;8.714;2023-04-08T10:53:31;-16261.94;;;-139.71;72.35
3598;BME280;1813;52.016;8.714;2023-04-08T10:56:06;-16261.94;;;-139.71;72.57
3598;BME280;1813;52.016;8.714;2023-04-08T10:58:49;-16261.94;;;-139.71;72.72
3598;BME280;1813;52.016;8.714;2023-04-08T11:01:24;-16261.94;;;-139.71;72.17
3598;BME280;1813;52.016;8.714;2023-04-08T11:04:06;-16261.94;;;-139.71;71.53
3598;BME280;1813;52.016;8.714;2023-04-08T11:06:41;-16261.94;;;-139.71;71.50
3598;BME280;1813;52.016;8.714;2023-04-08T11:09:16;-16261.94;;;-139.71;71.21
3598;BME280;1813;52.016;8.714;2023-04-08T11:11:51;-16261.94;;;-139.71;70.85
3598;BME280;1813;52.016;8.714;2023-04-08T11:14:26;-16261.94;;;-139.71;71.03
3598;BME280;1813;52.016;8.714;2023-04-08T11:17:02;-16261.94;;;-139.71;71.59
3598;BME280;1813;52.016;8.714;2023-04-08T11:19:40;-16261.94;;;-139.71;71.77
3598;BME280;1813;52.016;8.714;2023-04-08T11:22:15;-16261.94;;;-139.71;71.88
3598;BME280;1813;52.016;8.714;2023-04-08T11:24:49;-16261.94;;;-139.71;72.20
3598;BME280;1813;52.016;8.714;2023-04-08T11:27:23;-16261.94;;;-139.71;72.55
3598;BME280;1813;52.016;8.714;2023-04-08T11:29:58;-16261.94;;;-139.71;72.63
3598;BME280;1813;52.016;8.714;2023-04-08T11:32:32;-16261.94;;;-139.71;72.65
3598;BME280;1813;52.016;8.714;2023-04-08T11:35:09;-16261.94;;;-139.71;73.13
3598;BME280;1813;52.016;8.714;2023-04-08T11:37:43;-16261.94;;;-139.71;73.51
3598;BME280;1813;52.016;8.714;2023-04-08T11:40:20;-16261.94;;;-139.71;74.11
3598;BME280;1813;52.016;8.714;2023-04-08T11:42:54;-16261.94;;;-139.71;74.20
3598;BME280;1813;52.016;8.714;2023-04-08T11:45:28;-16261.94;;;-139.71;73.73
3598;BME280;1813;52.016;8.714;2023-04-08T11:48:08;-16261.94;;;-139.71;73.53
3598;BME280;1813;52.016;8.714;2023-04-08T11:50:45;-16261.94;;;-139.71;73.54
3598;BME280;1813;52.016;8.714;2023-04-08T11:53:21;-16261.94;;;-139.71;73.67
3598;BME280;1813;52.016;8.714;2023-04-08T11:56:14;-16261.94;;;-139.71;73.54
3598;BME280;1813;52.016;8.714;2023-04-08T11:58:49;-16261.94;;;-139.71;73.50
3598;BME280;1813;52.016;8.714;2023-04-08T12:01:24;-16261.94;;;-139.71;73.12
3598;BME280;1813;52.016;8.714;2023-04-08T12:03:59;-16261.94;;;-139.71;72.87
3598;BME280;1813;52.016;8.714;2023-04-08T12:06:37;-16261.94;;;-139.71;72.92
3598;BME280;1813;52.016;8.714;2023-04-08T12:09:13;-16261.94;;;-139.71;71.82
3598;BME280;1813;52.016;8.714;2023-04-08T12:11:47;-16261.94;;;-139.71;71.06
3598;BME280;1813;52.016;8.714;2023-04-08T12:14:21;-16261.94;;;-139.71;70.79
3598;BME280;1813;52.016;8.714;2023-04-08T12:16:55;-16261.94;;;-139.71;70.92
3598;BME280;1813;52.016;8.714;2023-04-08T12:19:29;-16261.94;;;-139.71;71.01
3598;BME280;1813;52.016;8.714;2023-04-08T12:22:06;-16261.94;;;-139.71;71.54
3598;BME280;1813;52.016;8.714;2023-04-08T12:24:40;-16261.94;;;-139.71;71.74
3598;BME280;1813;52.016;8.714;2023-04-08T12:27:15;-16261.94;;;-139.71;72.35
3598;BME280;1813;52.016;8.714;2023-04-08T12:29:48;-16261.94;;;-139.71;72.06
3598;BME280;1813;52.016;8.714;2023-04-08T12:32:23;-16261.94;;;-139.71;71.50
3598;BME280;1813;52.016;8.714;2023-04-08T12:34:57;-16261.94;;;-139.71;71.49
3598;BME280;1813;52.016;8.714;2023-04-08T12:37:33;-16261.94;;;-139.71;71.59
3598;BME280;1813;52.016;8.714;2023-04-08T12:40:08;-16261.94;;;-139.71;71.51
3598;BME280;1813;52.016;8.714;2023-04-08T12:42:41;-16261.94;;;-139.71;70.96
3598;BME280;1813;52.016;8.714;2023-04-08T12:45:17;-16261.94;;;-139.71;71.01
3598;BME280;1813;52.016;8.714;2023-04-08T12:47:51;-16261.94;;;-139.71;70.99
3598;BME280;1813;52.016;8.714;2023-04-08T12:50:25;-16261.94;;;-139.71;70.61
3598;BME280;1813;52.016;8.714;2023-04-08T12:53:02;-16261.94;;;-139.71;70.40
3598;BME280;1813;52.016;8.714;2023-04-08T12:55:35;-16261.94;;;-139.71;70.46
3598;BME280;1813;52.016;8.714;2023-04-08T12:58:09;-16261.94;;;-139.71;69.93
3598;BME280;1813;52.016;8.714;2023-04-08T13:00:43;-16261.94;;;-139.71;69.95
3598;BME280;1813;52.016;8.714;2023-04-08T13:03:19;-16261.94;;;-139.71;70.34
3598;BME280;1813;52.016;8.714;2023-04-08T13:05:53;-16261.94;;;-139.71;70.94
3598;BME280;1813;52.016;8.714;2023-04-08T13:08:31;-16261.94;;;-139.71;70.59
3598;BME280;1813;52.016;8.714;2023-04-08T13:11:06;-16261.94;;;-139.71;70.43
3598;BME280;1813;52.016;8.714;2023-04-08T13:13:40;-16261.94;;;-139.71;70.75
3598;BME280;1813;52.016;8.714;2023-04-08T13:16:16;-16261.94;;;-139.71;70.77
3598;BME280;1813;52.016;8.714;2023-04-08T13:18:50;-16261.94;;;-139.71;71.07
3598;BME280;1813;52.016;8.714;2023-04-08T13:21:24;-16261.94;;;-139.71;71.18
3598;BME280;1813;52.016;8.714;2023-04-08T13:24:00;-16261.94;;;-139.71;71.32
3598;BME280;1813;52.016;8.714;2023-04-08T13:26:34;-16261.94;;;-139.71;71.02
3598;BME280;1813;52.016;8.714;2023-04-08T13:29:08;-16261.94;;;-139.71;71.14
3598;BME280;1813;52.016;8.714;2023-04-08T13:31:42;-16261.94;;;-139.71;71.41
3598;BME280;1813;52.016;8.714;2023-04-08T13:34:16;-16261.94;;;-139.71;71.84